Archival Weather

Tokyo Intl

Tokyo Intl, Japan (RJTT)

Report from: Friday, June 24, 2022 9:29 AM JST
Current time: Tuesday, August 16, 2022 10:29 AM JST

Current weather
Weather history
Weather forecast

Temperature28.0°C (82.4°F)
Heat index32.0°C (89.6°F)
Dew point24.0°C (75.2°F)
Winds 21 kts (10.8 m/s, 24.2 mph) South-Southwest (210°)
Wind gusts 31 kts (15.9 m/s, 35.7 mph)
Visibility6.2 mi. (10 km)
Clouds Ceiling: Broken clouds 0 ft. (0 m)
Few clouds 2,000 ft. (610 m)
Scattered clouds 17,000 ft. (5,182 m)
Altimeter29.71 in.Hg (1006 mB)
Relative humidity79 %
Density altitude2,140 ft. (652 m)
Remarks Special weather observation
Flight conditions Low Instrument Meteorological Conditions
Raw dataSPJP31 KWBC 240034 SPECI RJTT 240029Z 21021G31KT 9999 FEW020 SCT170 BKN/// 28/24 Q1006 RMK 1CU020 4AC170 A2971
An error has occurred. This application may no longer respond until reloaded. Reload 🗙